Time,TemperatureF,DewpointF,PressureIn,WindDirection,WindDirectionDegrees,WindSpeedMPH,WindSpeedGustMPH,Humidity,HourlyPrecipIn,Conditions,Clouds,dailyrainin,SolarRadiationWatts/m^2,SoftwareType,DateUTC
2013-02-10 00:00:00,33.7,30.0,30.01,SW,217,0.0,0.0,86,0.00,,,0.00,0,WeatherCatV1.12B45,2013-02-10 08:00:00,
2013-02-10 00:05:00,33.7,30.0,30.01,SW,217,0.0,0.0,86,0.00,,,0.00,0,WeatherCatV1.12B45,2013-02-10 08:05:00,
2013-02-10 00:10:00,33.5,30.1,30.01,SW,217,0.0,0.0,87,0.00,,,0.00,0,WeatherCatV1.12B45,2013-02-10 08:10:00,
2013-02-10 00:15:00,33.5,30.1,30.02,SW,217,0.0,0.0,87,0.00,,,0.00,0,WeatherCatV1.12B45,2013-02-10 08:15:00,
2013-02-10 00:20:00,33.4,30.0,30.02,SW,217,0.0,0.0,87,0.00,,,0.00,0,WeatherCatV1.12B45,2013-02-10 08:20:00,
2013-02-10 00:25:00,33.4,30.0,30.02,SW,217,0.0,0.0,87,0.00,,,0.00,0,WeatherCatV1.12B45,2013-02-10 08:25:00,
2013-02-10 00:30:00,33.4,30.0,30.01,SSW,202,0.0,0.0,87,0.00,,,0.00,0,WeatherCatV1.12B45,2013-02-10 08:30:00,
2013-02-10 00:35:00,33.2,29.8,30.01,SW,217,0.0,0.0,87,0.00,,,0.00,0,WeatherCatV1.12B45,2013-02-10 08:35:00,
2013-02-10 00:40:00,33.2,29.8,30.01,SW,217,0.0,0.0,87,0.00,,,0.00,0,WeatherCatV1.12B45,2013-02-10 08:40:00,
2013-02-10 00:45:00,33.1,29.7,30.01,SW,217,0.0,0.0,87,0.00,,,0.00,0,WeatherCatV1.12B45,2013-02-10 08:45:00,
2013-02-10 00:50:00,32.9,29.5,30.01,SW,217,0.0,0.0,87,0.00,,,0.00,0,WeatherCatV1.12B45,2013-02-10 08:50:00,
2013-02-10 00:55:00,32.8,29.4,30.01,SW,217,0.0,0.0,87,0.00,,,0.00,0,WeatherCatV1.12B45,2013-02-10 08:55:00,
2013-02-10 01:00:00,32.8,29.6,30.01,SW,219,0.0,0.0,88,0.00,,,0.00,0,WeatherCatV1.12B45,2013-02-10 09:00:00,
2013-02-10 01:05:00,32.8,29.6,30.01,SW,219,0.0,0.0,88,0.00,,,0.00,0,WeatherCatV1.12B45,2013-02-10 09:05:00,
2013-02-10 01:10:00,32.7,29.5,30.01,SW,219,0.0,0.0,88,0.00,,,0.00,0,WeatherCatV1.12B45,2013-02-10 09:10:00,
2013-02-10 01:15:00,32.7,29.5,30.01,SW,219,0.0,0.0,88,0.00,,,0.00,0,WeatherCatV1.12B45,2013-02-10 09:15:00,
2013-02-10 01:20:00,32.5,29.3,30.01,SSW,193,0.0,0.0,88,0.00,,,0.00,0,WeatherCatV1.12B45,2013-02-10 09:20:00,
2013-02-10 01:25:00,32.5,29.3,30.01,SW,219,0.0,0.0,88,0.00,,,0.00,0,WeatherCatV1.12B45,2013-02-10 09:25:00,
2013-02-10 01:30:00,32.5,29.3,30.01,SW,217,0.0,0.0,88,0.00,,,0.00,0,WeatherCatV1.12B45,2013-02-10 09:30:00,
2013-02-10 01:35:00,32.5,29.3,30.01,SW,217,0.0,0.0,88,0.00,,,0.00,0,WeatherCatV1.12B45,2013-02-10 09:35:00,
2013-02-10 01:40:00,32.4,29.2,30.01,SW,217,0.0,0.0,88,0.00,,,0.00,0,WeatherCatV1.12B45,2013-02-10 09:40:00,
2013-02-10 01:45:00,32.4,29.5,30.01,SW,217,0.0,0.0,89,0.00,,,0.00,0,WeatherCatV1.12B45,2013-02-10 09:45:00,
2013-02-10 01:50:00,32.2,29.1,30.01,SW,217,0.0,0.0,88,0.00,,,0.00,0,WeatherCatV1.12B45,2013-02-10 09:50:00,
2013-02-10 01:55:00,32.2,29.1,30.01,SW,217,0.0,0.0,88,0.00,,,0.00,0,WeatherCatV1.12B45,2013-02-10 09:55:00,
2013-02-10 02:00:00,32.1,29.0,30.01,SW,217,0.0,0.0,88,0.00,,,0.00,0,WeatherCatV1.12B45,2013-02-10 10:00:00,
2013-02-10 02:05:00,31.9,29.0,30.01,SW,217,0.0,0.0,89,0.00,,,0.00,0,WeatherCatV1.12B45,2013-02-10 10:05:00,
2013-02-10 02:10:00,31.9,29.0,30.01,SW,217,0.0,0.0,89,0.00,,,0.00,0,WeatherCatV1.12B45,2013-02-10 10:10:00,
2013-02-10 02:15:00,31.8,28.9,30.01,SW,217,0.0,0.0,89,0.00,,,0.00,0,WeatherCatV1.12B45,2013-02-10 10:15:00,
2013-02-10 02:20:00,31.8,28.9,30.01,SW,219,0.0,0.0,89,0.00,,,0.00,0,WeatherCatV1.12B45,2013-02-10 10:20:00,
2013-02-10 02:25:00,31.8,28.9,30.01,SW,222,0.0,0.0,89,0.00,,,0.00,0,WeatherCatV1.12B45,2013-02-10 10:25:00,
2013-02-10 02:30:00,31.6,28.7,30.01,SW,223,0.0,0.0,89,0.00,,,0.00,0,WeatherCatV1.12B45,2013-02-10 10:30:00,
2013-02-10 02:35:00,31.6,28.7,30.01,SW,222,0.0,0.0,89,0.00,,,0.00,0,WeatherCatV1.12B45,2013-02-10 10:35:00,
2013-02-10 02:40:00,31.5,28.6,30.01,SW,220,0.0,0.0,89,0.00,,,0.00,0,WeatherCatV1.12B45,2013-02-10 10:40:00,
2013-02-10 02:45:00,31.5,28.6,30.01,SW,220,0.0,0.0,89,0.00,,,0.00,0,WeatherCatV1.12B45,2013-02-10 10:45:00,
2013-02-10 02:50:00,31.5,28.6,30.01,SW,220,0.0,0.0,89,0.00,,,0.00,0,WeatherCatV1.12B45,2013-02-10 10:50:00,
2013-02-10 02:55:00,31.5,28.6,30.01,SW,220,0.0,0.0,89,0.00,,,0.00,0,WeatherCatV1.12B45,2013-02-10 10:55:00,
2013-02-10 03:00:00,31.5,28.6,30.01,SSW,192,0.0,0.0,89,0.00,,,0.00,0,WeatherCatV1.12B45,2013-02-10 11:00:00,
2013-02-10 03:05:00,31.3,28.4,30.01,SW,224,0.0,0.0,89,0.00,,,0.00,0,WeatherCatV1.12B45,2013-02-10 11:05:00,
2013-02-10 03:10:00,31.2,28.3,30.01,SW,226,0.0,0.0,89,0.00,,,0.00,0,WeatherCatV1.12B45,2013-02-10 11:10:00,
2013-02-10 03:15:00,31.2,28.3,30.01,SW,233,0.0,0.0,89,0.00,,,0.00,0,WeatherCatV1.12B45,2013-02-10 11:15:00,
2013-02-10 03:20:00,31.2,28.6,30.01,SW,229,0.0,0.0,90,0.00,,,0.00,0,WeatherCatV1.12B45,2013-02-10 11:20:00,
2013-02-10 03:25:00,31.2,28.6,30.01,SW,233,0.0,0.0,90,0.00,,,0.00,0,WeatherCatV1.12B45,2013-02-10 11:25:00,
2013-02-10 03:30:00,31.0,28.4,30.00,SW,236,0.0,0.0,90,0.00,,,0.00,0,WeatherCatV1.12B45,2013-02-10 11:30:00,
2013-02-10 03:35:00,30.9,28.3,30.00,NW,312,0.0,0.0,90,0.00,,,0.00,0,WeatherCatV1.12B45,2013-02-10 11:35:00,
2013-02-10 03:40:00,30.9,28.0,30.00,NW,325,0.0,0.0,89,0.00,,,0.00,0,WeatherCatV1.12B45,2013-02-10 11:40:00,
2013-02-10 03:45:00,30.7,28.1,30.00,NNW,329,0.0,0.0,90,0.00,,,0.00,0,WeatherCatV1.12B45,2013-02-10 11:45:00,
2013-02-10 03:50:00,30.7,28.1,30.00,NNW,329,0.0,0.0,90,0.00,,,0.00,0,WeatherCatV1.12B45,2013-02-10 11:50:00,
2013-02-10 03:55:00,30.6,28.0,30.00,NNW,329,0.0,0.0,90,0.00,,,0.00,0,WeatherCatV1.12B45,2013-02-10 11:55:00,
2013-02-10 04:00:00,30.4,27.8,30.00,NNW,329,0.0,0.0,90,0.00,,,0.00,0,WeatherCatV1.12B45,2013-02-10 12:00:00,
2013-02-10 04:05:00,30.3,27.7,30.00,NNW,329,0.0,0.0,90,0.00,,,0.00,0,WeatherCatV1.12B45,2013-02-10 12:05:00,
2013-02-10 04:10:00,30.4,27.8,30.00,NNW,329,0.0,0.0,90,0.00,,,0.00,0,WeatherCatV1.12B45,2013-02-10 12:10:00,
2013-02-10 04:15:00,30.4,27.8,30.00,NNW,330,0.0,0.0,90,0.00,,,0.00,0,WeatherCatV1.12B45,2013-02-10 12:15:00,
2013-02-10 04:20:00,30.6,28.0,30.00,NNW,330,0.0,0.0,90,0.00,,,0.00,0,WeatherCatV1.12B45,2013-02-10 12:20:00,
2013-02-10 04:25:00,30.4,27.8,30.00,NNW,332,0.0,0.0,90,0.00,,,0.00,0,WeatherCatV1.12B45,2013-02-10 12:25:00,
2013-02-10 04:30:00,30.3,27.7,30.00,NNW,330,0.0,0.0,90,0.00,,,0.00,0,WeatherCatV1.12B45,2013-02-10 12:30:00,
2013-02-10 04:35:00,30.3,27.7,30.00,NNW,330,0.0,0.0,90,0.00,,,0.00,0,WeatherCatV1.12B45,2013-02-10 12:35:00,
2013-02-10 04:40:00,30.3,27.7,30.00,NNW,332,0.0,0.0,90,0.00,,,0.00,0,WeatherCatV1.12B45,2013-02-10 12:40:00,
2013-02-10 04:45:00,30.3,27.7,30.00,NNW,329,0.0,0.0,90,0.00,,,0.00,0,WeatherCatV1.12B45,2013-02-10 12:45:00,
2013-02-10 04:50:00,30.3,27.7,30.00,NNW,329,0.0,0.0,90,0.00,,,0.00,0,WeatherCatV1.12B45,2013-02-10 12:50:00,
2013-02-10 04:55:00,30.3,28.0,30.00,NNW,332,0.0,0.0,91,0.00,,,0.00,0,WeatherCatV1.12B45,2013-02-10 12:55:00,
2013-02-10 05:00:00,30.1,27.8,30.00,NNW,330,0.0,0.0,91,0.00,,,0.00,0,WeatherCatV1.12B45,2013-02-10 13:00:00,
2013-02-10 05:05:00,30.0,27.4,30.00,NNW,330,0.0,0.0,90,0.00,,,0.00,0,WeatherCatV1.12B45,2013-02-10 13:05:00,
2013-02-10 05:10:00,30.0,27.4,30.00,NNW,329,0.0,0.0,90,0.00,,,0.00,0,WeatherCatV1.12B45,2013-02-10 13:10:00,
2013-02-10 05:15:00,30.0,27.7,30.00,NNW,329,0.0,0.0,91,0.00,,,0.00,0,WeatherCatV1.12B45,2013-02-10 13:15:00,
2013-02-10 05:20:00,29.8,27.5,30.00,NW,323,0.0,0.0,91,0.00,,,0.00,0,WeatherCatV1.12B45,2013-02-10 13:20:00,
2013-02-10 05:25:00,29.8,27.5,30.00,NW,322,0.0,0.0,91,0.00,,,0.00,0,WeatherCatV1.12B45,2013-02-10 13:25:00,
2013-02-10 05:30:00,29.8,27.5,30.01,NW,320,0.0,0.0,91,0.00,,,0.00,0,WeatherCatV1.12B45,2013-02-10 13:30:00,
2013-02-10 05:35:00,30.0,27.7,30.01,NW,315,0.0,0.0,91,0.00,,,0.00,0,WeatherCatV1.12B45,2013-02-10 13:35:00,
2013-02-10 05:40:00,30.0,27.7,30.01,NW,316,0.0,0.0,91,0.00,,,0.00,0,WeatherCatV1.12B45,2013-02-10 13:40:00,
2013-02-10 05:45:00,29.8,27.5,30.01,NW,318,0.0,0.0,91,0.00,,,0.00,0,WeatherCatV1.12B45,2013-02-10 13:45:00,
2013-02-10 05:50:00,29.8,27.5,30.01,NW,318,0.0,0.0,91,0.00,,,0.00,0,WeatherCatV1.12B45,2013-02-10 13:50:00,
2013-02-10 05:55:00,29.8,27.5,30.01,NW,312,0.0,0.0,91,0.00,,,0.00,0,WeatherCatV1.12B45,2013-02-10 13:55:00,
2013-02-10 06:00:00,29.7,27.4,30.00,NW,315,0.0,0.0,91,0.00,,,0.00,0,WeatherCatV1.12B45,2013-02-10 14:00:00,
2013-02-10 06:05:00,29.7,27.4,30.00,NW,311,0.0,0.0,91,0.00,,,0.00,0,WeatherCatV1.12B45,2013-02-10 14:05:00,
2013-02-10 06:10:00,29.7,27.4,30.00,NW,313,0.0,0.0,91,0.00,,,0.00,0,WeatherCatV1.12B45,2013-02-10 14:10:00,
2013-02-10 06:15:00,29.7,27.4,30.01,NW,309,0.0,0.0,91,0.00,,,0.00,0,WeatherCatV1.12B45,2013-02-10 14:15:00,
2013-02-10 06:20:00,29.7,27.7,30.01,NW,311,0.0,0.0,92,0.00,,,0.00,0,WeatherCatV1.12B45,2013-02-10 14:20:00,
2013-02-10 06:25:00,29.7,27.4,30.01,NW,308,0.0,0.0,91,0.00,,,0.00,0,WeatherCatV1.12B45,2013-02-10 14:25:00,
2013-02-10 06:30:00,29.7,27.4,30.01,WNW,294,0.0,0.0,91,0.00,,,0.00,0,WeatherCatV1.12B45,2013-02-10 14:30:00,
2013-02-10 06:35:00,29.7,27.4,30.01,WNW,299,0.0,0.0,91,0.00,,,0.00,0,WeatherCatV1.12B45,2013-02-10 14:35:00,
2013-02-10 06:40:00,29.7,27.4,30.01,WNW,298,0.0,0.0,91,0.00,,,0.00,0,WeatherCatV1.12B45,2013-02-10 14:40:00,
2013-02-10 06:45:00,29.5,27.2,30.01,NW,308,0.0,0.0,91,0.00,,,0.00,0,WeatherCatV1.12B45,2013-02-10 14:45:00,
2013-02-10 06:50:00,29.5,27.2,30.01,WNW,301,0.0,0.0,91,0.00,,,0.00,0,WeatherCatV1.12B45,2013-02-10 14:50:00,
2013-02-10 06:55:00,29.5,27.2,30.01,WNW,299,0.0,0.0,91,0.00,,,0.00,0,WeatherCatV1.12B45,2013-02-10 14:55:00,
2013-02-10 07:00:00,29.5,27.2,30.03,WNW,296,0.0,0.0,91,0.00,,,0.00,0,WeatherCatV1.12B45,2013-02-10 15:00:00,
2013-02-10 07:05:00,29.5,27.2,30.03,West,278,0.0,0.0,91,0.00,,,0.00,0,WeatherCatV1.12B45,2013-02-10 15:05:00,
2013-02-10 07:10:00,29.5,27.2,30.03,West,271,0.0,0.0,91,0.00,,,0.00,0,WeatherCatV1.12B45,2013-02-10 15:10:00,
2013-02-10 07:15:00,29.5,27.5,30.04,WSW,244,0.0,0.0,92,0.00,,,0.00,7,WeatherCatV1.12B45,2013-02-10 15:15:00,
2013-02-10 07:20:00,29.5,27.5,30.04,West,261,0.0,0.0,92,0.00,,,0.00,9,WeatherCatV1.12B45,2013-02-10 15:20:00,
2013-02-10 07:25:00,29.7,27.7,30.04,WSW,258,0.0,0.0,92,0.00,,,0.00,12,WeatherCatV1.12B45,2013-02-10 15:25:00,
2013-02-10 07:30:00,29.7,27.7,30.04,WSW,251,0.0,0.0,92,0.00,,,0.00,16,WeatherCatV1.12B45,2013-02-10 15:30:00,
2013-02-10 07:35:00,29.8,27.8,30.04,WSW,257,0.0,0.0,92,0.00,,,0.00,23,WeatherCatV1.12B45,2013-02-10 15:35:00,
2013-02-10 07:40:00,30.0,28.0,30.04,WSW,247,0.0,0.0,92,0.00,,,0.00,30,WeatherCatV1.12B45,2013-02-10 15:40:00,
2013-02-10 07:45:00,30.3,28.3,30.04,WSW,244,0.0,0.0,92,0.00,,,0.00,30,WeatherCatV1.12B45,2013-02-10 15:45:00,
2013-02-10 07:50:00,30.6,28.6,30.04,SW,232,0.0,0.0,92,0.00,,,0.00,42,WeatherCatV1.12B45,2013-02-10 15:50:00,
2013-02-10 07:55:00,30.7,28.7,30.04,SW,222,0.0,0.0,92,0.00,,,0.00,60,WeatherCatV1.12B45,2013-02-10 15:55:00,
2013-02-10 08:00:00,31.3,29.3,30.05,SW,222,0.0,0.0,92,0.00,,,0.00,121,WeatherCatV1.12B45,2013-02-10 16:00:00,
2013-02-10 08:05:00,31.6,29.8,30.05,SW,234,0.0,0.0,93,0.00,,,0.00,165,WeatherCatV1.12B45,2013-02-10 16:05:00,
2013-02-10 08:15:00,34.4,32.9,30.04,SW,232,0.0,0.0,94,0.00,,,0.00,164,WeatherCatV1.12B45,2013-02-10 16:15:00,
2013-02-10 08:20:00,36.0,34.4,30.04,WSW,244,0.0,0.0,94,0.00,,,0.00,127,WeatherCatV1.12B45,2013-02-10 16:20:00,
2013-02-10 08:25:00,37.2,35.6,30.04,NNW,337,0.0,0.0,94,0.00,,,0.00,127,WeatherCatV1.12B45,2013-02-10 16:25:00,
2013-02-10 08:30:00,37.9,36.3,30.05,NNW,335,0.0,0.0,94,0.00,,,0.00,127,WeatherCatV1.12B45,2013-02-10 16:30:00,
2013-02-10 08:35:00,38.8,37.2,30.05,NW,320,0.0,0.0,94,0.00,,,0.00,127,WeatherCatV1.12B45,2013-02-10 16:35:00,
2013-02-10 08:40:00,39.9,38.3,30.05,West,278,0.0,0.0,94,0.00,,,0.00,252,WeatherCatV1.12B45,2013-02-10 16:40:00,
2013-02-10 08:45:00,40.9,39.3,30.04,NNW,329,0.0,0.0,94,0.00,,,0.00,238,WeatherCatV1.12B45,2013-02-10 16:45:00,
2013-02-10 08:50:00,41.3,39.4,30.04,NW,326,0.0,0.0,93,0.00,,,0.00,260,WeatherCatV1.12B45,2013-02-10 16:50:00,
2013-02-10 08:55:00,42.6,40.7,30.04,NW,326,0.0,0.0,93,0.00,,,0.00,260,WeatherCatV1.12B45,2013-02-10 16:55:00,
2013-02-10 09:00:00,43.8,41.9,30.04,NW,322,0.0,0.0,93,0.00,,,0.00,313,WeatherCatV1.12B45,2013-02-10 17:00:00,
2013-02-10 09:05:00,44.9,42.1,30.04,NW,326,0.0,0.0,90,0.00,,,0.00,313,WeatherCatV1.12B45,2013-02-10 17:05:00,
2013-02-10 09:10:00,45.8,42.2,30.04,NNW,332,0.0,0.0,87,0.00,,,0.00,313,WeatherCatV1.12B45,2013-02-10 17:10:00,
2013-02-10 09:15:00,47.4,43.7,30.04,NW,305,0.0,0.0,87,0.00,,,0.00,313,WeatherCatV1.12B45,2013-02-10 17:15:00,
2013-02-10 09:20:00,48.3,43.4,30.04,NW,305,0.0,0.0,83,0.00,,,0.00,396,WeatherCatV1.12B45,2013-02-10 17:20:00,
2013-02-10 09:25:00,48.8,43.9,30.04,NW,326,0.0,0.0,83,0.00,,,0.00,396,WeatherCatV1.12B45,2013-02-10 17:25:00,
2013-02-10 09:30:00,49.4,44.5,30.04,NW,326,0.0,0.0,83,0.00,,,0.00,426,WeatherCatV1.12B45,2013-02-10 17:30:00,
2013-02-10 09:35:00,50.1,45.1,30.04,NNW,330,0.0,0.0,83,0.00,,,0.00,426,WeatherCatV1.12B45,2013-02-10 17:35:00,
2013-02-10 09:40:00,51.0,41.9,30.04,NNW,329,0.0,0.0,71,0.00,,,0.00,452,WeatherCatV1.12B45,2013-02-10 17:40:00,
2013-02-10 09:50:00,51.6,41.4,30.04,NW,318,0.0,2.0,68,0.00,,,0.00,470,WeatherCatV1.12B45,2013-02-10 17:50:00,
2013-02-10 09:55:00,51.9,41.7,30.04,NW,319,0.0,0.0,68,0.00,,,0.00,470,WeatherCatV1.12B45,2013-02-10 17:55:00,
2013-02-10 10:00:00,52.5,40.7,30.04,NW,312,0.0,0.0,64,0.00,,,0.00,482,WeatherCatV1.12B45,2013-02-10 18:00:00,
2013-02-10 10:05:00,52.8,40.6,30.04,WNW,287,0.0,2.0,63,0.00,,,0.00,486,WeatherCatV1.12B45,2013-02-10 18:05:00,
2013-02-10 10:10:00,52.8,40.1,30.04,West,274,0.0,1.0,62,0.00,,,0.00,486,WeatherCatV1.12B45,2013-02-10 18:10:00,
2013-02-10 10:15:00,52.9,40.7,30.04,West,275,0.0,2.0,63,0.00,,,0.00,500,WeatherCatV1.12B45,2013-02-10 18:15:00,
2013-02-10 10:20:00,52.8,40.6,30.04,West,281,0.0,1.0,63,0.00,,,0.00,500,WeatherCatV1.12B45,2013-02-10 18:20:00,
2013-02-10 10:25:00,53.1,40.4,30.04,West,264,0.0,0.0,62,0.00,,,0.00,487,WeatherCatV1.12B45,2013-02-10 18:25:00,
2013-02-10 10:30:00,53.5,40.8,30.03,West,277,0.0,0.0,62,0.00,,,0.00,487,WeatherCatV1.12B45,2013-02-10 18:30:00,
2013-02-10 10:35:00,53.8,40.7,30.03,West,275,0.0,0.0,61,0.00,,,0.00,500,WeatherCatV1.12B45,2013-02-10 18:35:00,
2013-02-10 10:40:00,54.4,40.4,30.03,WSW,258,0.0,2.0,59,0.00,,,0.00,572,WeatherCatV1.12B45,2013-02-10 18:40:00,
2013-02-10 10:45:00,54.4,40.4,30.04,SW,222,0.0,2.0,59,0.00,,,0.00,581,WeatherCatV1.12B45,2013-02-10 18:45:00,
2013-02-10 10:50:00,54.4,40.8,30.04,SW,233,0.0,0.0,60,0.00,,,0.00,581,WeatherCatV1.12B45,2013-02-10 18:50:00,
2013-02-10 10:55:00,54.7,41.1,30.04,West,265,0.0,1.0,60,0.00,,,0.00,588,WeatherCatV1.12B45,2013-02-10 18:55:00,
2013-02-10 11:00:00,55.0,41.4,30.03,WSW,248,1.0,2.0,60,0.00,,,0.00,588,WeatherCatV1.12B45,2013-02-10 19:00:00,
2013-02-10 11:05:00,55.7,42.0,30.03,West,263,0.0,0.0,60,0.00,,,0.00,626,WeatherCatV1.12B45,2013-02-10 19:05:00,
2013-02-10 11:10:00,56.0,41.0,30.03,WSW,243,1.0,1.0,57,0.00,,,0.00,626,WeatherCatV1.12B45,2013-02-10 19:10:00,
2013-02-10 11:15:00,56.2,41.2,30.02,WSW,243,0.0,0.0,57,0.00,,,0.00,648,WeatherCatV1.12B45,2013-02-10 19:15:00,
2013-02-10 11:20:00,56.2,41.2,30.02,SW,232,0.0,0.0,57,0.00,,,0.00,648,WeatherCatV1.12B45,2013-02-10 19:20:00,
2013-02-10 11:25:00,57.8,42.7,30.02,WSW,246,0.0,0.0,57,0.00,,,0.00,649,WeatherCatV1.12B45,2013-02-10 19:25:00,
2013-02-10 11:30:00,58.0,42.9,30.02,South,174,0.0,0.0,57,0.00,,,0.00,649,WeatherCatV1.12B45,2013-02-10 19:30:00,
2013-02-10 11:35:00,58.7,43.5,30.02,WNW,296,0.0,1.0,57,0.00,,,0.00,665,WeatherCatV1.12B45,2013-02-10 19:35:00,
2013-02-10 11:40:00,58.7,43.5,30.02,WNW,299,0.0,0.0,57,0.00,,,0.00,665,WeatherCatV1.12B45,2013-02-10 19:40:00,
2013-02-10 11:45:00,58.7,43.5,30.02,NW,305,0.0,1.0,57,0.00,,,0.00,667,WeatherCatV1.12B45,2013-02-10 19:45:00,
2013-02-10 11:50:00,59.0,43.8,30.02,NW,311,1.0,1.0,57,0.00,,,0.00,667,WeatherCatV1.12B45,2013-02-10 19:50:00,
2013-02-10 11:55:00,59.3,40.1,30.02,NNW,336,1.0,1.0,49,0.00,,,0.00,674,WeatherCatV1.12B45,2013-02-10 19:55:00,
2013-02-10 12:00:00,59.5,40.3,30.00,NNW,339,0.0,2.0,49,0.00,,,0.00,679,WeatherCatV1.12B45,2013-02-10 20:00:00,
2013-02-10 12:05:00,59.8,40.6,30.00,NNW,347,0.0,1.0,49,0.00,,,0.00,679,WeatherCatV1.12B45,2013-02-10 20:05:00,
2013-02-10 12:10:00,60.2,41.0,30.00,NNW,330,0.0,0.0,49,0.00,,,0.00,681,WeatherCatV1.12B45,2013-02-10 20:10:00,
2013-02-10 12:15:00,60.5,38.5,29.99,WNW,291,0.0,2.0,44,0.00,,,0.00,681,WeatherCatV1.12B45,2013-02-10 20:15:00,
2013-02-10 12:20:00,60.5,39.1,29.99,NNW,344,0.0,1.0,45,0.00,,,0.00,684,WeatherCatV1.12B45,2013-02-10 20:20:00,
2013-02-10 12:25:00,60.2,37.0,29.99,NNW,340,4.0,4.0,42,0.00,,,0.00,683,WeatherCatV1.12B45,2013-02-10 20:25:00,
2013-02-10 12:30:00,60.1,36.9,29.98,NW,316,0.0,3.0,42,0.00,,,0.00,683,WeatherCatV1.12B45,2013-02-10 20:30:00,
2013-02-10 12:35:00,60.2,36.4,29.98,NNW,337,0.0,3.0,41,0.00,,,0.00,683,WeatherCatV1.12B45,2013-02-10 20:35:00,
2013-02-10 12:40:00,60.4,36.6,29.98,NW,318,1.0,2.0,41,0.00,,,0.00,684,WeatherCatV1.12B45,2013-02-10 20:40:00,
2013-02-10 12:45:00,60.5,36.1,29.97,NNW,329,3.0,3.0,40,0.00,,,0.00,681,WeatherCatV1.12B45,2013-02-10 20:45:00,
2013-02-10 12:50:00,60.5,36.1,29.97,NW,316,2.0,3.0,40,0.00,,,0.00,677,WeatherCatV1.12B45,2013-02-10 20:50:00,
2013-02-10 12:55:00,60.7,35.6,29.97,WNW,302,1.0,2.0,39,0.00,,,0.00,677,WeatherCatV1.12B45,2013-02-10 20:55:00,
2013-02-10 13:00:00,60.9,35.8,29.97,NW,325,1.0,3.0,39,0.00,,,0.00,677,WeatherCatV1.12B45,2013-02-10 21:00:00,
2013-02-10 13:05:00,61.0,35.9,29.97,WNW,301,4.0,4.0,39,0.00,,,0.00,677,WeatherCatV1.12B45,2013-02-10 21:05:00,
2013-02-10 13:10:00,61.0,35.9,29.97,NW,312,0.0,2.0,39,0.00,,,0.00,663,WeatherCatV1.12B45,2013-02-10 21:10:00,
2013-02-10 13:15:00,61.0,35.9,29.96,WNW,298,0.0,0.0,39,0.00,,,0.00,663,WeatherCatV1.12B45,2013-02-10 21:15:00,
2013-02-10 13:20:00,61.3,34.1,29.96,WNW,301,2.0,3.0,36,0.00,,,0.00,663,WeatherCatV1.12B45,2013-02-10 21:20:00,
2013-02-10 13:25:00,61.5,34.3,29.96,WNW,288,0.0,3.0,36,0.00,,,0.00,663,WeatherCatV1.12B45,2013-02-10 21:25:00,
2013-02-10 13:30:00,61.5,34.3,29.96,WNW,291,2.0,4.0,36,0.00,,,0.00,663,WeatherCatV1.12B45,2013-02-10 21:30:00,
2013-02-10 13:35:00,61.5,34.3,29.96,NW,322,0.0,0.0,36,0.00,,,0.00,663,WeatherCatV1.12B45,2013-02-10 21:35:00,
2013-02-10 13:40:00,62.1,34.8,29.96,NW,306,1.0,2.0,36,0.00,,,0.00,663,WeatherCatV1.12B45,2013-02-10 21:40:00,
2013-02-10 13:45:00,62.0,34.7,29.95,NW,308,3.0,3.0,36,0.00,,,0.00,625,WeatherCatV1.12B45,2013-02-10 21:45:00,
2013-02-10 13:50:00,62.0,34.7,29.95,NNW,337,0.0,3.0,36,0.00,,,0.00,625,WeatherCatV1.12B45,2013-02-10 21:50:00,
2013-02-10 13:55:00,62.0,33.3,29.95,NNW,337,1.0,3.0,34,0.00,,,0.00,612,WeatherCatV1.12B45,2013-02-10 21:55:00,
2013-02-10 14:00:00,62.1,34.8,29.95,NNW,340,1.0,2.0,36,0.00,,,0.00,604,WeatherCatV1.12B45,2013-02-10 22:00:00,
2013-02-10 14:05:00,62.3,33.6,29.95,NNW,329,1.0,1.0,34,0.00,,,0.00,593,WeatherCatV1.12B45,2013-02-10 22:05:00,
2013-02-10 14:10:00,62.4,33.7,29.95,NNW,346,0.0,0.0,34,0.00,,,0.00,593,WeatherCatV1.12B45,2013-02-10 22:10:00,
2013-02-10 14:15:00,62.4,33.7,29.95,NW,312,0.0,1.0,34,0.00,,,0.00,593,WeatherCatV1.12B45,2013-02-10 22:15:00,
2013-02-10 14:20:00,62.9,34.1,29.95,West,267,1.0,1.0,34,0.00,,,0.00,593,WeatherCatV1.12B45,2013-02-10 22:20:00,
2013-02-10 14:25:00,63.2,32.9,29.95,WNW,288,0.0,1.0,32,0.00,,,0.00,547,WeatherCatV1.12B45,2013-02-10 22:25:00,
2013-02-10 14:30:00,63.4,33.0,29.94,NNW,346,1.0,3.0,32,0.00,,,0.00,547,WeatherCatV1.12B45,2013-02-10 22:30:00,
2013-02-10 14:35:00,63.4,35.3,29.94,NW,320,0.0,0.0,35,0.00,,,0.00,547,WeatherCatV1.12B45,2013-02-10 22:35:00,
2013-02-10 14:40:00,63.7,36.2,29.94,WNW,288,0.0,0.0,36,0.00,,,0.00,547,WeatherCatV1.12B45,2013-02-10 22:40:00,
2013-02-10 14:45:00,63.9,36.4,29.94,NW,312,3.0,3.0,36,0.00,,,0.00,503,WeatherCatV1.12B45,2013-02-10 22:45:00,
2013-02-10 14:50:00,63.7,36.9,29.94,NNW,336,0.0,1.0,37,0.00,,,0.00,500,WeatherCatV1.12B45,2013-02-10 22:50:00,
2013-02-10 14:55:00,63.5,36.8,29.94,North,350,2.0,2.0,37,0.00,,,0.00,500,WeatherCatV1.12B45,2013-02-10 22:55:00,
2013-02-10 15:00:00,63.1,36.4,29.94,North,350,1.0,3.0,37,0.00,,,0.00,468,WeatherCatV1.12B45,2013-02-10 23:00:00,
2013-02-10 15:05:00,62.9,40.6,29.94,North,350,1.0,2.0,44,0.00,,,0.00,459,WeatherCatV1.12B45,2013-02-10 23:05:00,
2013-02-10 15:10:00,62.3,40.1,29.94,NNW,335,1.0,3.0,44,0.00,,,0.00,438,WeatherCatV1.12B45,2013-02-10 23:10:00,
2013-02-10 15:15:00,61.8,39.1,29.95,NNW,337,1.0,2.0,43,0.00,,,0.00,428,WeatherCatV1.12B45,2013-02-10 23:15:00,
2013-02-10 15:20:00,60.9,38.3,29.95,NNW,333,3.0,7.0,43,0.00,,,0.00,412,WeatherCatV1.12B45,2013-02-10 23:20:00,
2013-02-10 15:25:00,60.4,38.4,29.95,North,350,0.0,6.0,44,0.00,,,0.00,178,WeatherCatV1.12B45,2013-02-10 23:25:00,
2013-02-10 15:30:00,59.8,39.5,29.95,North,350,1.0,1.0,47,0.00,,,0.00,178,WeatherCatV1.12B45,2013-02-10 23:30:00,
2013-02-10 15:35:00,59.6,40.4,29.95,North,357,0.0,3.0,49,0.00,,,0.00,157,WeatherCatV1.12B45,2013-02-10 23:35:00,
2013-02-10 15:40:00,59.6,39.3,29.95,North,357,0.0,3.0,47,0.00,,,0.00,157,WeatherCatV1.12B45,2013-02-10 23:40:00,
2013-02-10 15:45:00,59.5,39.8,29.95,North,356,1.0,5.0,48,0.00,,,0.00,157,WeatherCatV1.12B45,2013-02-10 23:45:00,
2013-02-10 15:50:00,59.2,40.0,29.95,North,353,0.0,3.0,49,0.00,,,0.00,157,WeatherCatV1.12B45,2013-02-10 23:50:00,
2013-02-10 15:55:00,59.0,39.3,29.95,NW,323,1.0,2.0,48,0.00,,,0.00,246,WeatherCatV1.12B45,2013-02-10 23:55:00,
2013-02-10 16:00:00,58.4,39.8,29.95,NNW,336,1.0,2.0,50,0.00,,,0.00,246,WeatherCatV1.12B45,2013-02-11 00:00:00,
2013-02-10 16:05:00,58.4,40.3,29.95,NW,325,2.0,3.0,51,0.00,,,0.00,48,WeatherCatV1.12B45,2013-02-11 00:05:00,
2013-02-10 16:10:00,58.6,40.5,29.95,NNW,330,1.0,1.0,51,0.00,,,0.00,48,WeatherCatV1.12B45,2013-02-11 00:10:00,
2013-02-10 16:15:00,58.7,40.1,29.95,NW,304,2.0,2.0,50,0.00,,,0.00,81,WeatherCatV1.12B45,2013-02-11 00:15:00,
2013-02-10 16:20:00,58.4,39.3,29.95,NW,308,0.0,2.0,49,0.00,,,0.00,99,WeatherCatV1.12B45,2013-02-11 00:20:00,
2013-02-10 16:25:00,58.1,39.6,29.95,NW,312,0.0,0.0,50,0.00,,,0.00,99,WeatherCatV1.12B45,2013-02-11 00:25:00,
2013-02-10 16:30:00,58.0,40.0,29.95,NNW,335,0.0,2.0,51,0.00,,,0.00,102,WeatherCatV1.12B45,2013-02-11 00:30:00,
2013-02-10 16:35:00,57.6,40.6,29.95,NNW,340,0.0,0.0,53,0.00,,,0.00,102,WeatherCatV1.12B45,2013-02-11 00:35:00,
2013-02-10 16:40:00,57.3,40.8,29.95,NW,318,0.0,3.0,54,0.00,,,0.00,102,WeatherCatV1.12B45,2013-02-11 00:40:00,
2013-02-10 16:45:00,57.3,41.3,29.95,NNW,329,0.0,0.0,55,0.00,,,0.00,102,WeatherCatV1.12B45,2013-02-11 00:45:00,
2013-02-10 16:50:00,56.6,40.6,29.95,NNW,347,0.0,2.0,55,0.00,,,0.00,30,WeatherCatV1.12B45,2013-02-11 00:50:00,
2013-02-10 16:55:00,56.3,41.3,29.95,North,349,0.0,0.0,57,0.00,,,0.00,30,WeatherCatV1.12B45,2013-02-11 00:55:00,
2013-02-10 17:00:00,56.2,41.2,29.95,North,349,0.0,1.0,57,0.00,,,0.00,23,WeatherCatV1.12B45,2013-02-11 01:00:00,
2013-02-10 17:05:00,55.9,40.9,29.95,NW,325,0.0,0.0,57,0.00,,,0.00,21,WeatherCatV1.12B45,2013-02-11 01:05:00,
2013-02-10 17:10:00,55.6,40.6,29.95,NNW,342,0.0,0.0,57,0.00,,,0.00,19,WeatherCatV1.12B45,2013-02-11 01:10:00,
2013-02-10 17:15:00,55.3,40.3,29.94,NNW,339,0.0,1.0,57,0.00,,,0.00,18,WeatherCatV1.12B45,2013-02-11 01:15:00,
2013-02-10 17:20:00,54.8,39.9,29.94,NNW,329,0.0,0.0,57,0.00,,,0.00,16,WeatherCatV1.12B45,2013-02-11 01:20:00,
2013-02-10 17:25:00,54.4,39.5,29.94,NNW,337,0.0,0.0,57,0.00,,,0.00,11,WeatherCatV1.12B45,2013-02-11 01:25:00,
2013-02-10 17:30:00,54.1,39.7,29.95,NNW,342,0.0,0.0,58,0.00,,,0.00,11,WeatherCatV1.12B45,2013-02-11 01:30:00,
2013-02-10 17:35:00,53.8,38.9,29.95,NNW,333,0.0,0.0,57,0.00,,,0.00,11,WeatherCatV1.12B45,2013-02-11 01:35:00,
2013-02-10 17:40:00,53.3,39.3,29.95,NW,316,0.0,0.0,59,0.00,,,0.00,5,WeatherCatV1.12B45,2013-02-11 01:40:00,
2013-02-10 17:45:00,53.1,39.6,29.95,NW,313,0.0,0.0,60,0.00,,,0.00,0,WeatherCatV1.12B45,2013-02-11 01:45:00,
2013-02-10 17:50:00,52.9,39.4,29.95,NW,322,0.0,0.0,60,0.00,,,0.00,0,WeatherCatV1.12B45,2013-02-11 01:50:00,
2013-02-10 17:55:00,52.8,39.3,29.95,NW,312,0.0,0.0,60,0.00,,,0.00,0,WeatherCatV1.12B45,2013-02-11 01:55:00,
2013-02-10 18:00:00,52.0,41.4,29.96,NW,306,0.0,0.0,67,0.00,,,0.00,0,WeatherCatV1.12B45,2013-02-11 02:00:00,
2013-02-10 18:05:00,51.4,40.8,29.96,WNW,302,0.0,0.0,67,0.00,,,0.00,0,WeatherCatV1.12B45,2013-02-11 02:05:00,
2013-02-10 18:10:00,51.3,40.7,29.96,WNW,301,0.0,0.0,67,0.00,,,0.00,0,WeatherCatV1.12B45,2013-02-11 02:10:00,
2013-02-10 18:15:00,51.3,41.5,29.96,WNW,294,0.0,0.0,69,0.00,,,0.00,0,WeatherCatV1.12B45,2013-02-11 02:15:00,
2013-02-10 18:20:00,50.1,40.3,29.96,WNW,295,0.0,0.0,69,0.00,,,0.00,0,WeatherCatV1.12B45,2013-02-11 02:20:00,
2013-02-10 18:25:00,49.8,40.4,29.96,WNW,294,0.0,0.0,70,0.00,,,0.00,0,WeatherCatV1.12B45,2013-02-11 02:25:00,
2013-02-10 18:30:00,49.2,40.2,29.97,NW,311,0.0,0.0,71,0.00,,,0.00,0,WeatherCatV1.12B45,2013-02-11 02:30:00,
2013-02-10 18:35:00,48.6,40.0,29.97,WNW,296,0.0,0.0,72,0.00,,,0.00,0,WeatherCatV1.12B45,2013-02-11 02:35:00,
2013-02-10 18:40:00,48.2,40.0,29.97,WNW,287,0.0,0.0,73,0.00,,,0.00,0,WeatherCatV1.12B45,2013-02-11 02:40:00,
2013-02-10 18:45:00,47.7,39.5,29.96,NW,308,0.0,0.0,73,0.00,,,0.00,0,WeatherCatV1.12B45,2013-02-11 02:45:00,
2013-02-10 18:50:00,47.3,39.1,29.96,NW,305,0.0,0.0,73,0.00,,,0.00,0,WeatherCatV1.12B45,2013-02-11 02:50:00,
2013-02-10 18:55:00,47.0,39.1,29.96,NW,304,0.0,0.0,74,0.00,,,0.00,0,WeatherCatV1.12B45,2013-02-11 02:55:00,
2013-02-10 19:00:00,46.5,39.0,29.97,West,275,0.0,0.0,75,0.00,,,0.00,0,WeatherCatV1.12B45,2013-02-11 03:00:00,
2013-02-10 19:05:00,46.0,38.9,29.97,NW,304,0.0,0.0,76,0.00,,,0.00,0,WeatherCatV1.12B45,2013-02-11 03:05:00,
2013-02-10 19:10:00,45.7,38.6,29.97,SW,217,0.0,0.0,76,0.00,,,0.00,0,WeatherCatV1.12B45,2013-02-11 03:10:00,
2013-02-10 19:15:00,45.7,38.9,29.97,SSW,210,0.0,0.0,77,0.00,,,0.00,0,WeatherCatV1.12B45,2013-02-11 03:15:00,
2013-02-10 19:20:00,45.4,38.6,29.97,SSE,147,0.0,0.0,77,0.00,,,0.00,0,WeatherCatV1.12B45,2013-02-11 03:20:00,
2013-02-10 19:25:00,45.1,38.3,29.97,SSE,155,0.0,0.0,77,0.00,,,0.00,0,WeatherCatV1.12B45,2013-02-11 03:25:00,
2013-02-10 19:30:00,45.1,38.3,29.97,SSE,155,0.0,0.0,77,0.00,,,0.00,0,WeatherCatV1.12B45,2013-02-11 03:30:00,
2013-02-10 19:35:00,44.2,37.5,29.97,WNW,295,0.0,0.0,77,0.00,,,0.00,0,WeatherCatV1.12B45,2013-02-11 03:35:00,
2013-02-10 19:40:00,43.8,38.0,29.97,West,280,0.0,0.0,80,0.00,,,0.00,0,WeatherCatV1.12B45,2013-02-11 03:40:00,
2013-02-10 19:45:00,43.6,37.8,29.97,WNW,282,0.0,0.0,80,0.00,,,0.00,0,WeatherCatV1.12B45,2013-02-11 03:45:00,
2013-02-10 19:50:00,43.3,37.6,29.97,WNW,288,0.0,0.0,80,0.00,,,0.00,0,WeatherCatV1.12B45,2013-02-11 03:50:00,
2013-02-10 19:55:00,43.3,37.9,29.97,SSE,147,0.0,0.0,81,0.00,,,0.00,0,WeatherCatV1.12B45,2013-02-11 03:55:00,
2013-02-10 20:00:00,42.9,37.8,29.97,SE,145,0.0,0.0,82,0.00,,,0.00,0,WeatherCatV1.12B45,2013-02-11 04:00:00,
2013-02-10 20:05:00,42.8,37.7,29.97,SE,145,0.0,0.0,82,0.00,,,0.00,0,WeatherCatV1.12B45,2013-02-11 04:05:00,
2013-02-10 20:10:00,42.5,37.7,29.97,SE,145,0.0,0.0,83,0.00,,,0.00,0,WeatherCatV1.12B45,2013-02-11 04:10:00,
2013-02-10 20:15:00,42.2,37.4,29.97,SE,140,0.0,0.0,83,0.00,,,0.00,0,WeatherCatV1.12B45,2013-02-11 04:15:00,
2013-02-10 20:20:00,41.9,37.4,29.97,SE,140,0.0,0.0,84,0.00,,,0.00,0,WeatherCatV1.12B45,2013-02-11 04:20:00,
2013-02-10 20:25:00,41.8,37.3,29.97,SE,140,0.0,0.0,84,0.00,,,0.00,0,WeatherCatV1.12B45,2013-02-11 04:25:00,
2013-02-10 20:30:00,41.6,37.1,29.97,SE,140,0.0,0.0,84,0.00,,,0.00,0,WeatherCatV1.12B45,2013-02-11 04:30:00,
2013-02-10 20:35:00,41.5,37.3,29.97,SE,140,0.0,0.0,85,0.00,,,0.00,0,WeatherCatV1.12B45,2013-02-11 04:35:00,
2013-02-10 20:40:00,41.3,37.1,29.97,SE,140,0.0,0.0,85,0.00,,,0.00,0,WeatherCatV1.12B45,2013-02-11 04:40:00,
2013-02-10 20:45:00,41.2,37.0,29.98,SE,140,0.0,0.0,85,0.00,,,0.00,0,WeatherCatV1.12B45,2013-02-11 04:45:00,
2013-02-10 20:50:00,41.1,36.9,29.98,NW,312,0.0,0.0,85,0.00,,,0.00,0,WeatherCatV1.12B45,2013-02-11 04:50:00,
2013-02-10 20:55:00,41.1,37.2,29.98,NW,312,0.0,0.0,86,0.00,,,0.00,0,WeatherCatV1.12B45,2013-02-11 04:55:00,
2013-02-10 21:05:00,40.9,37.0,29.98,NW,311,0.0,0.0,86,0.00,,,0.00,0,WeatherCatV1.12B45,2013-02-11 05:05:00,
2013-02-10 21:10:00,40.8,36.9,29.98,NW,311,0.0,0.0,86,0.00,,,0.00,0,WeatherCatV1.12B45,2013-02-11 05:10:00,
2013-02-10 21:15:00,40.6,36.7,29.98,NW,311,0.0,0.0,86,0.00,,,0.00,0,WeatherCatV1.12B45,2013-02-11 05:15:00,
2013-02-10 21:20:00,40.5,36.9,29.98,NW,311,0.0,0.0,87,0.00,,,0.00,0,WeatherCatV1.12B45,2013-02-11 05:20:00,
2013-02-10 21:25:00,40.3,36.7,29.98,NW,311,0.0,0.0,87,0.00,,,0.00,0,WeatherCatV1.12B45,2013-02-11 05:25:00,
2013-02-10 21:30:00,40.2,36.6,29.98,NW,311,0.0,0.0,87,0.00,,,0.00,0,WeatherCatV1.12B45,2013-02-11 05:30:00,
2013-02-10 21:35:00,40.2,36.6,29.98,NW,311,0.0,0.0,87,0.00,,,0.00,0,WeatherCatV1.12B45,2013-02-11 05:35:00,
2013-02-10 21:40:00,40.1,36.5,29.98,NW,311,0.0,0.0,87,0.00,,,0.00,0,WeatherCatV1.12B45,2013-02-11 05:40:00,
2013-02-10 21:45:00,39.8,36.3,29.98,NW,311,0.0,0.0,87,0.00,,,0.00,0,WeatherCatV1.12B45,2013-02-11 05:45:00,
2013-02-10 21:50:00,39.6,36.3,29.98,NW,311,0.0,0.0,88,0.00,,,0.00,0,WeatherCatV1.12B45,2013-02-11 05:50:00,
2013-02-10 21:55:00,39.6,36.3,29.98,NW,311,0.0,0.0,88,0.00,,,0.00,0,WeatherCatV1.12B45,2013-02-11 05:55:00,
2013-02-10 22:00:00,39.5,36.2,29.98,NW,311,0.0,0.0,88,0.00,,,0.00,0,WeatherCatV1.12B45,2013-02-11 06:00:00,
2013-02-10 22:05:00,39.2,36.0,29.98,NW,311,0.0,0.0,88,0.00,,,0.00,0,WeatherCatV1.12B45,2013-02-11 06:05:00,
2013-02-10 22:10:00,39.2,36.0,29.98,NW,311,0.0,0.0,88,0.00,,,0.00,0,WeatherCatV1.12B45,2013-02-11 06:10:00,
2013-02-10 22:15:00,39.1,35.9,29.99,NW,311,0.0,0.0,88,0.00,,,0.00,0,WeatherCatV1.12B45,2013-02-11 06:15:00,
2013-02-10 22:20:00,38.8,35.6,29.99,NW,311,0.0,0.0,88,0.00,,,0.00,0,WeatherCatV1.12B45,2013-02-11 06:20:00,
2013-02-10 22:25:00,38.8,35.8,29.99,NW,311,0.0,0.0,89,0.00,,,0.00,0,WeatherCatV1.12B45,2013-02-11 06:25:00,
2013-02-10 22:30:00,38.6,35.6,29.99,NW,311,0.0,0.0,89,0.00,,,0.00,0,WeatherCatV1.12B45,2013-02-11 06:30:00,
2013-02-10 22:35:00,38.5,35.5,29.99,NW,311,0.0,0.0,89,0.00,,,0.00,0,WeatherCatV1.12B45,2013-02-11 06:35:00,
2013-02-10 22:40:00,38.3,35.3,29.99,NW,311,0.0,0.0,89,0.00,,,0.00,0,WeatherCatV1.12B45,2013-02-11 06:40:00,
2013-02-10 22:45:00,38.3,35.3,29.99,NW,311,0.0,0.0,89,0.00,,,0.00,0,WeatherCatV1.12B45,2013-02-11 06:45:00,
2013-02-10 22:50:00,38.3,35.3,29.99,NW,311,0.0,0.0,89,0.00,,,0.00,0,WeatherCatV1.12B45,2013-02-11 06:50:00,
2013-02-10 22:55:00,37.9,35.0,29.99,NW,311,0.0,0.0,89,0.00,,,0.00,0,WeatherCatV1.12B45,2013-02-11 06:55:00,
2013-02-10 23:00:00,37.9,35.0,29.99,NW,311,0.0,0.0,89,0.00,,,0.00,0,WeatherCatV1.12B45,2013-02-11 07:00:00,
2013-02-10 23:05:00,37.8,34.9,29.99,NW,311,0.0,0.0,89,0.00,,,0.00,0,WeatherCatV1.12B45,2013-02-11 07:05:00,
2013-02-10 23:10:00,37.6,34.7,29.99,NW,311,0.0,0.0,89,0.00,,,0.00,0,WeatherCatV1.12B45,2013-02-11 07:10:00,
2013-02-10 23:15:00,37.3,34.4,29.99,NW,311,0.0,0.0,89,0.00,,,0.00,0,WeatherCatV1.12B45,2013-02-11 07:15:00,
2013-02-10 23:20:00,37.2,34.3,29.99,NW,311,0.0,0.0,89,0.00,,,0.00,0,WeatherCatV1.12B45,2013-02-11 07:20:00,
2013-02-10 23:25:00,37.2,34.3,29.99,NW,311,0.0,0.0,89,0.00,,,0.00,0,WeatherCatV1.12B45,2013-02-11 07:25:00,
2013-02-10 23:30:00,37.0,34.3,29.99,NW,311,0.0,0.0,90,0.00,,,0.00,0,WeatherCatV1.12B45,2013-02-11 07:30:00,
2013-02-10 23:35:00,37.0,34.3,29.99,NW,311,0.0,0.0,90,0.00,,,0.00,0,WeatherCatV1.12B45,2013-02-11 07:35:00,
2013-02-10 23:40:00,36.9,34.2,29.99,NW,311,0.0,0.0,90,0.00,,,0.00,0,WeatherCatV1.12B45,2013-02-11 07:40:00,
2013-02-10 23:45:00,36.8,34.1,29.99,NW,311,0.0,0.0,90,0.00,,,0.00,0,WeatherCatV1.12B45,2013-02-11 07:45:00,
2013-02-10 23:50:00,36.6,33.9,29.99,NW,311,0.0,0.0,90,0.00,,,0.00,0,WeatherCatV1.12B45,2013-02-11 07:50:00,
2013-02-10 23:55:00,36.5,33.9,29.99,NW,311,0.0,0.0,90,0.00,,,0.00,0,WeatherCatV1.12B45,2013-02-11 07:55:00,